首页
METAR-TAF:

METAR-TAF

机场 :

Rutland Southern Vermont Regional Airport

拉特蘭, 佛蒙特州, 美国

纬度: 43-32N, 经度: 072-57W, 海拔: 240米

当前天气观测

该预报发布于15分钟前的15:56 UTC
风速13节,风向东转东南
温度 2°C
湿度 69%
气压 1028 hPa
能見度: 16.1公里
少量云层高于2400英尺
多云层高于3600英尺
阴天层高于4600英尺

METAR: KRUT 131556Z AUTO 11013KT 10SM FEW024 BKN036 OVC046 02/M03 A3037 RMK AO2 SLP290 T00171028 FZRANO $

时间: 11:11 (16:11 UTC)

预报

该预报发布于4小时和40分钟前的11:31 UTC
预报有效从13日的 12点(UTC)到 14日的 12点(UTC)
风速8节,风向东南
能見度: 10公里
散云层高于3000英尺
多云层高于15000英尺
从 13日的 1500点(UTC)
风速7节,风向,有时为17节阵风
能見度: 10公里
阴天层高于3000英尺
从 13日的 2000点(UTC)
风速8节,风向东南
能見度: 9.7公里
阴天层高于2000英尺
小毛毛雨
短暂存在
从 13日的 22点(UTC)到 14日的 02点(UTC)
能見度: 4.8公里
阴天层高于1500英尺
小毛毛雨, 轻雾
从 14日的 0400点(UTC)
风速10节,风向东南,有时为20节阵风
能見度: 6.4公里
阴天层高于3500英尺
小雨, 轻雾
从 14日的 0900点(UTC)
风速12节,风向东南,有时为24节阵风
能見度: 9.7公里
阴天层高于4000英尺
小雨, 轻雾

TAF: KRUT 131131Z 1312/1412 13008KT P6SM SCT030 BKN150 WS020/21035KT FM131500 17007G17KT P6SM OVC030 WS020/21035KT FM132000 14008KT 6SM -DZ OVC020 WS020/21035KT TEMPO 1322/1402 3SM -DZ BR OVC015 FM140400 14010G20KT 4SM -RA BR OVC035 WS020/17035KT FM140900 14012G24KT 6SM -RA BR OVC040

超过4000个机场的气象观测和天气预报(METAR&TAF报告)。

可查询的气象台以黄色和红色小点在地图上表示。

将鼠标移到小点上方,可查看气象台名称。

然后点击查看天气观测和预报。

如需切换地图:点击带黑十字的绿色按钮放大地图;点击带横线的绿色按钮缩小地图;或者点击绿色箭头查看邻近地区的地图。


METAR-TAF: